PWSweather.com
Personal Weather Stations
Station Observations
MANRESA
Manresa Catalonia, ManresaES 08243

Manresa CataloniaManresaES 08243

Lat: 41.731, Lon: 1.834

Elevation: 824

Station Type: Oregon Scientífic WMR-200

Latest ConditionsUpdated 1:42:02 PM GMT+01:01 Saturday, Jul 20, 2019
Currently Today's Max Today's Min Today's Average
Temperature 89.2°F31.8°C 89.2°F31.8°C 66.4°F19.1°C 74.5°F23.6°C
Dew Point 46.6°F8.1°C 58.3°F14.6°C 45.0°F7.2°C 53.8°F12.1°C
Winds 12.8 mph S20.6 kmh S 15.7 mph -25.3 kmh - - 3.0 mph 4.8 kmh
Wind Gusts 15.9 mph25.6 kmh 16.8 mph27.0 kmh - -
Humidity 23% 69% 22% 51%
Pressure 29.99 in1015.6 mb 30.04 in1017.3 mb 29.99 in1015.6 mb -
Hour Temp Dew Point Humidity Winds Wind Gusts Pressure Precip Precip Rate Daily Precip Total
01:42 PM 89.2°F31.8°C 46.6°F8.1°C 23% 12.8 mph S20.6 kmh S 15.9 mph25.6 kmh 29.99 in1015.6 mb - 0.00 in0.0 mm 0.00 in0.0 mm
01:37 PM 89.1°F31.7°C 46.4°F8.0°C 23% 13.9 mph SSE22.4 kmh SSE 16.8 mph27.0 kmh 30.01 in1016.3 mb - 0.00 in0.0 mm 0.00 in0.0 mm
01:32 PM 89.1°F31.7°C 45.3°F7.4°C 22% 11.4 mph SE18.3 kmh SE 10.3 mph16.6 kmh 30.01 in1016.3 mb - 0.00 in0.0 mm 0.00 in0.0 mm
01:27 PM 88.7°F31.5°C 45.0°F7.2°C 22% 9.2 mph S14.8 kmh S 11.2 mph18.0 kmh 30.01 in1016.3 mb - 0.00 in0.0 mm 0.00 in0.0 mm
01:22 PM 89.2°F31.8°C 46.6°F8.1°C 23% 10.7 mph S17.2 kmh S 13.6 mph21.9 kmh 30.01 in1016.3 mb - 0.00 in0.0 mm 0.00 in0.0 mm
01:17 PM 88.5°F31.4°C 47.1°F8.4°C 24% 6.5 mph SSW10.5 kmh SSW 5.8 mph9.3 kmh 30.01 in1016.3 mb - 0.00 in0.0 mm 0.00 in0.0 mm
01:12 PM 88.2°F31.2°C 46.8°F8.2°C 24% 15.7 mph SSE25.3 kmh SSE 15.0 mph24.1 kmh 30.01 in1016.3 mb - 0.00 in0.0 mm 0.00 in0.0 mm
01:07 PM 88.3°F31.3°C 46.9°F8.3°C 24% 8.5 mph SSE13.7 kmh SSE 9.2 mph14.8 kmh 30.01 in1016.3 mb - 0.00 in0.0 mm 0.00 in0.0 mm
01:02 PM 88.0°F31.1°C 46.8°F8.2°C 24% 6.9 mph S11.1 kmh S 8.7 mph14.0 kmh 30.01 in1016.3 mb - 0.00 in0.0 mm 0.00 in0.0 mm
12:57 PM 88.2°F31.2°C 47.8°F8.8°C 25% 10.1 mph S16.3 kmh S 12.5 mph20.1 kmh 30.01 in1016.3 mb - 0.00 in0.0 mm 0.00 in0.0 mm
12:52 PM 87.6°F30.9°C 48.6°F9.2°C 26% 14.8 mph SSE23.8 kmh SSE 15.0 mph24.1 kmh 30.01 in1016.3 mb - 0.00 in0.0 mm 0.00 in0.0 mm
12:47 PM 88.0°F31.1°C 48.7°F9.3°C 26% 8.3 mph SSE13.4 kmh SSE 7.4 mph11.9 kmh 30.01 in1016.3 mb - 0.00 in0.0 mm 0.00 in0.0 mm
12:42 PM 87.6°F30.9°C 50.5°F10.3°C 28% 5.8 mph SSW9.3 kmh SSW 5.1 mph8.2 kmh 30.01 in1016.3 mb - 0.00 in0.0 mm 0.00 in0.0 mm
12:37 PM 87.1°F30.6°C 48.0°F8.9°C 26% 11.4 mph S18.3 kmh S 9.4 mph15.1 kmh 30.01 in1016.3 mb - 0.00 in0.0 mm 0.00 in0.0 mm
12:32 PM 87.6°F30.9°C 49.5°F9.7°C 27% 7.6 mph SSW12.2 kmh SSW 7.8 mph12.6 kmh 30.01 in1016.3 mb - 0.00 in0.0 mm 0.00 in0.0 mm
12:27 PM 87.6°F30.9°C 49.5°F9.7°C 27% 2.5 mph SSW4.0 kmh SSW 4.9 mph7.9 kmh 30.01 in1016.3 mb - 0.00 in0.0 mm 0.00 in0.0 mm
12:22 PM 87.1°F30.6°C 50.0°F10.0°C 28% 2.5 mph WNW4.0 kmh WNW 2.9 mph4.7 kmh 30.01 in1016.3 mb - 0.00 in0.0 mm 0.00 in0.0 mm
12:17 PM 87.1°F30.6°C 50.0°F10.0°C 28% 8.1 mph S13.0 kmh S 7.6 mph12.2 kmh 30.01 in1016.3 mb - 0.00 in0.0 mm 0.00 in0.0 mm
12:12 PM 86.5°F30.3°C 49.6°F9.8°C 28% 3.6 mph SSE5.8 kmh SSE 4.5 mph7.2 kmh 30.01 in1016.3 mb - 0.00 in0.0 mm 0.00 in0.0 mm
12:07 PM 85.8°F29.9°C 49.8°F9.9°C 29% 1.6 mph ENE2.6 kmh ENE 1.8 mph2.9 kmh 30.01 in1016.3 mb - 0.00 in0.0 mm 0.00 in0.0 mm
12:02 PM 86.2°F30.1°C 50.2°F10.1°C 29% 4.0 mph 6.4 kmh 4.3 mph6.9 kmh 30.01 in1016.3 mb - 0.00 in0.0 mm 0.00 in0.0 mm
11:57 AM 85.8°F29.9°C 49.8°F9.9°C 29% 3.8 mph E6.1 kmh E 3.8 mph6.1 kmh 30.01 in1016.3 mb - 0.00 in0.0 mm 0.00 in0.0 mm
11:52 AM 85.1°F29.5°C 50.2°F10.1°C 30% 4.5 mph ENE7.2 kmh ENE 3.4 mph5.5 kmh 30.01 in1016.3 mb - 0.00 in0.0 mm 0.00 in0.0 mm
11:47 AM 84.4°F29.1°C 49.6°F9.8°C 30% 3.4 mph NNW5.5 kmh NNW 2.7 mph4.3 kmh 30.01 in1016.3 mb - 0.00 in0.0 mm 0.00 in0.0 mm
11:42 AM 84.6°F29.2°C 49.6°F9.8°C 30% 5.4 mph 8.7 kmh 5.4 mph8.7 kmh 30.01 in1016.3 mb - 0.00 in0.0 mm 0.00 in0.0 mm
11:37 AM 83.8°F28.8°C 49.1°F9.5°C 30% 3.8 mph NW6.1 kmh NW 3.8 mph6.1 kmh 30.01 in1016.3 mb - 0.00 in0.0 mm 0.00 in0.0 mm
11:32 AM 83.8°F28.8°C 50.0°F10.0°C 31% 4.0 mph ENE6.4 kmh ENE 3.4 mph5.5 kmh 30.01 in1016.3 mb - 0.00 in0.0 mm 0.00 in0.0 mm
11:27 AM 84.6°F29.2°C 49.6°F9.8°C 30% 5.4 mph NNE8.7 kmh NNE 5.6 mph9.0 kmh 30.01 in1016.3 mb - 0.00 in0.0 mm 0.00 in0.0 mm
11:22 AM 84.0°F28.9°C 50.2°F10.1°C 31% 4.5 mph ESE7.2 kmh ESE 4.5 mph7.2 kmh 30.01 in1016.3 mb - 0.00 in0.0 mm 0.00 in0.0 mm
11:17 AM 83.7°F28.7°C 49.8°F9.9°C 31% 2.2 mph NW3.5 kmh NW -- 30.01 in1016.3 mb - 0.00 in0.0 mm 0.00 in0.0 mm
11:12 AM 83.7°F28.7°C 50.7°F10.4°C 32% 2.0 mph NW3.2 kmh NW -- 30.01 in1016.3 mb - 0.00 in0.0 mm 0.00 in0.0 mm
11:07 AM 83.3°F28.5°C 51.3°F10.7°C 33% 2.0 mph E3.2 kmh E 2.0 mph3.2 kmh 30.01 in1016.3 mb - 0.00 in0.0 mm 0.00 in0.0 mm
11:02 AM 82.6°F28.1°C 50.5°F10.3°C 33% 2.2 mph WNW3.5 kmh WNW 2.5 mph4.0 kmh 30.01 in1016.3 mb - 0.00 in0.0 mm 0.00 in0.0 mm
10:57 AM 82.2°F27.9°C 51.1°F10.6°C 34% 0.9 mph SW1.4 kmh SW 2.0 mph3.2 kmh 30.01 in1016.3 mb - 0.00 in0.0 mm 0.00 in0.0 mm
10:52 AM 81.1°F27.3°C 50.9°F10.5°C 35% 2.7 mph SSW4.3 kmh SSW 2.0 mph3.2 kmh 30.01 in1016.3 mb - 0.00 in0.0 mm 0.00 in0.0 mm
10:47 AM 81.1°F27.3°C 51.6°F10.9°C 36% 3.4 mph SSW5.5 kmh SSW 5.1 mph8.2 kmh 30.01 in1016.3 mb - 0.00 in0.0 mm 0.00 in0.0 mm
10:42 AM 80.8°F27.1°C 52.2°F11.2°C 37% 4.3 mph ENE6.9 kmh ENE 4.0 mph6.4 kmh 30.01 in1016.3 mb - 0.00 in0.0 mm 0.00 in0.0 mm
10:37 AM 80.8°F27.1°C 53.6°F12.0°C 39% 4.0 mph E6.4 kmh E 3.4 mph5.5 kmh 30.01 in1016.3 mb - 0.00 in0.0 mm 0.00 in0.0 mm
10:32 AM 80.4°F26.9°C 54.5°F12.5°C 41% 2.2 mph 3.5 kmh 2.5 mph4.0 kmh 30.01 in1016.3 mb - 0.00 in0.0 mm 0.00 in0.0 mm
10:27 AM 79.7°F26.5°C 54.0°F12.2°C 41% 3.1 mph NE5.0 kmh NE 2.5 mph4.0 kmh 30.01 in1016.3 mb - 0.00 in0.0 mm 0.00 in0.0 mm
10:22 AM 78.8°F26.0°C 53.8°F12.1°C 42% 1.3 mph ESE2.1 kmh ESE 1.8 mph2.9 kmh 30.01 in1016.3 mb - 0.00 in0.0 mm 0.00 in0.0 mm
10:17 AM 78.4°F25.8°C 54.1°F12.3°C 43% 4.9 mph S7.9 kmh S 5.1 mph8.2 kmh 30.01 in1016.3 mb - 0.00 in0.0 mm 0.00 in0.0 mm
10:12 AM 77.4°F25.2°C 53.8°F12.1°C 44% 3.1 mph S5.0 kmh S 2.5 mph4.0 kmh 30.01 in1016.3 mb - 0.00 in0.0 mm 0.00 in0.0 mm
10:07 AM 77.0°F25.0°C 53.4°F11.9°C 44% 4.3 mph ESE6.9 kmh ESE 4.3 mph6.9 kmh 30.01 in1016.3 mb - 0.00 in0.0 mm 0.00 in0.0 mm
10:02 AM 77.2°F25.1°C 54.1°F12.3°C 45% 4.0 mph ESE6.4 kmh ESE 3.8 mph6.1 kmh 30.01 in1016.3 mb - 0.00 in0.0 mm 0.00 in0.0 mm
09:57 AM 77.2°F25.1°C 54.9°F12.7°C 46% 3.8 mph ESE6.1 kmh ESE 3.8 mph6.1 kmh 30.01 in1016.3 mb - 0.00 in0.0 mm 0.00 in0.0 mm
09:52 AM 77.0°F25.0°C 55.8°F13.2°C 48% 2.2 mph ENE3.5 kmh ENE 3.8 mph6.1 kmh 30.01 in1016.3 mb - 0.00 in0.0 mm 0.00 in0.0 mm
09:47 AM 76.3°F24.6°C 55.8°F13.2°C 49% 2.9 mph NNE4.7 kmh NNE 3.4 mph5.5 kmh 30.01 in1016.3 mb - 0.00 in0.0 mm 0.00 in0.0 mm
09:42 AM 76.1°F24.5°C 55.6°F13.1°C 49% 4.3 mph E6.9 kmh E 4.0 mph6.4 kmh 30.01 in1016.3 mb - 0.00 in0.0 mm 0.00 in0.0 mm
09:37 AM 75.9°F24.4°C 55.4°F13.0°C 49% 1.6 mph SSW2.6 kmh SSW -- 30.01 in1016.3 mb - 0.00 in0.0 mm 0.00 in0.0 mm
09:32 AM 75.7°F24.3°C 55.8°F13.2°C 50% 2.5 mph SSW4.0 kmh SSW 2.9 mph4.7 kmh 30.01 in1016.3 mb - 0.00 in0.0 mm 0.00 in0.0 mm
09:27 AM 75.2°F24.0°C 54.7°F12.6°C 49% 3.4 mph SE5.5 kmh SE 3.8 mph6.1 kmh 30.01 in1016.3 mb - 0.00 in0.0 mm 0.00 in0.0 mm
09:22 AM 75.0°F23.9°C 55.0°F12.8°C 50% 0.7 mph SSW1.1 kmh SSW 3.1 mph5.0 kmh 30.01 in1016.3 mb - 0.00 in0.0 mm 0.00 in0.0 mm
09:17 AM 74.8°F23.8°C 55.0°F12.8°C 50% 3.8 mph ESE6.1 kmh ESE 4.3 mph6.9 kmh 30.01 in1016.3 mb - 0.00 in0.0 mm 0.00 in0.0 mm
09:12 AM 74.3°F23.5°C 54.0°F12.2°C 49% 2.5 mph SE4.0 kmh SE 3.4 mph5.5 kmh 30.01 in1016.3 mb - 0.00 in0.0 mm 0.00 in0.0 mm
09:07 AM 74.5°F23.6°C 55.2°F12.9°C 51% 2.7 mph NE4.3 kmh NE 2.0 mph3.2 kmh 30.04 in1017.3 mb - 0.00 in0.0 mm 0.00 in0.0 mm
09:02 AM 73.9°F23.3°C 54.7°F12.6°C 51% 1.8 mph S2.9 kmh S -- 30.04 in1017.3 mb - 0.00 in0.0 mm 0.00 in0.0 mm
08:57 AM 73.8°F23.2°C 54.5°F12.5°C 51% 0.4 mph E0.6 kmh E -- 30.04 in1017.3 mb - 0.00 in0.0 mm 0.00 in0.0 mm
08:52 AM 72.9°F22.7°C 54.1°F12.3°C 52% 1.8 mph 2.9 kmh 3.6 mph5.8 kmh 30.04 in1017.3 mb - 0.00 in0.0 mm 0.00 in0.0 mm
08:47 AM 73.0°F22.8°C 54.9°F12.7°C 53% 3.4 mph 5.5 kmh 3.6 mph5.8 kmh 30.04 in1017.3 mb - 0.00 in0.0 mm 0.00 in0.0 mm
08:42 AM 72.5°F22.5°C 54.3°F12.4°C 53% 2.7 mph E4.3 kmh E 2.9 mph4.7 kmh 30.04 in1017.3 mb - 0.00 in0.0 mm 0.00 in0.0 mm
08:37 AM 72.3°F22.4°C 54.3°F12.4°C 53% 3.1 mph SSE5.0 kmh SSE 2.7 mph4.3 kmh 30.04 in1017.3 mb - 0.00 in0.0 mm 0.00 in0.0 mm
08:32 AM 72.0°F22.2°C 53.4°F11.9°C 52% 3.8 mph E6.1 kmh E 3.8 mph6.1 kmh 30.04 in1017.3 mb - 0.00 in0.0 mm 0.00 in0.0 mm
08:27 AM 72.5°F22.5°C 54.0°F12.2°C 52% 3.4 mph SSE5.5 kmh SSE 3.6 mph5.8 kmh 30.04 in1017.3 mb - 0.00 in0.0 mm 0.00 in0.0 mm
08:22 AM 72.7°F22.6°C 54.5°F12.5°C 53% 1.1 mph NE1.8 kmh NE 1.3 mph2.1 kmh 30.04 in1017.3 mb - 0.00 in0.0 mm 0.00 in0.0 mm
08:17 AM 72.7°F22.6°C 55.0°F12.8°C 54% 2.0 mph NNE3.2 kmh NNE 2.5 mph4.0 kmh 30.04 in1017.3 mb - 0.00 in0.0 mm 0.00 in0.0 mm
08:12 AM 72.9°F22.7°C 54.7°F12.6°C 53% Calm Calm -- 30.04 in1017.3 mb - 0.00 in0.0 mm 0.00 in0.0 mm
08:07 AM 72.1°F22.3°C 54.5°F12.5°C 54% 2.7 mph WNW4.3 kmh WNW 2.7 mph4.3 kmh 30.04 in1017.3 mb - 0.00 in0.0 mm 0.00 in0.0 mm
08:02 AM 71.6°F22.0°C 56.5°F13.6°C 59% 1.3 mph NNW2.1 kmh NNW 2.7 mph4.3 kmh 30.04 in1017.3 mb - 0.00 in0.0 mm 0.00 in0.0 mm
07:57 AM 71.4°F21.9°C 57.2°F14.0°C 61% 1.6 mph NNE2.6 kmh NNE 2.5 mph4.0 kmh 30.04 in1017.3 mb - 0.00 in0.0 mm 0.00 in0.0 mm
07:52 AM 70.5°F21.4°C 58.3°F14.6°C 65% 2.7 mph NNE4.3 kmh NNE 3.4 mph5.5 kmh 30.04 in1017.3 mb - 0.00 in0.0 mm 0.00 in0.0 mm
07:47 AM 69.6°F20.9°C 57.7°F14.3°C 66% Calm Calm -- 30.04 in1017.3 mb - 0.00 in0.0 mm 0.00 in0.0 mm
07:42 AM 69.1°F20.6°C 56.8°F13.8°C 65% 0.2 mph NNE0.3 kmh NNE 2.0 mph3.2 kmh 30.04 in1017.3 mb - 0.00 in0.0 mm 0.00 in0.0 mm
07:37 AM 69.3°F20.7°C 57.9°F14.4°C 67% 2.9 mph E4.7 kmh E 3.4 mph5.5 kmh 30.01 in1016.3 mb - 0.00 in0.0 mm 0.00 in0.0 mm
07:32 AM 68.7°F20.4°C 57.4°F14.1°C 67% 2.5 mph NNE4.0 kmh NNE 2.9 mph4.7 kmh 30.01 in1016.3 mb - 0.00 in0.0 mm 0.00 in0.0 mm
07:27 AM 68.4°F20.2°C 56.5°F13.6°C 66% 1.3 mph E2.1 kmh E 2.9 mph4.7 kmh 30.01 in1016.3 mb - 0.00 in0.0 mm 0.00 in0.0 mm
07:22 AM 68.4°F20.2°C 57.4°F14.1°C 68% 3.1 mph ENE5.0 kmh ENE 2.9 mph4.7 kmh 30.01 in1016.3 mb - 0.00 in0.0 mm 0.00 in0.0 mm
07:17 AM 68.2°F20.1°C 57.6°F14.2°C 69% 2.2 mph NE3.5 kmh NE 2.5 mph4.0 kmh 30.01 in1016.3 mb - 0.00 in0.0 mm 0.00 in0.0 mm
07:12 AM 67.6°F19.8°C 56.3°F13.5°C 67% 3.1 mph 5.0 kmh 4.3 mph6.9 kmh 30.01 in1016.3 mb - 0.00 in0.0 mm 0.00 in0.0 mm
07:07 AM 67.3°F19.6°C 55.6°F13.1°C 66% 3.1 mph E5.0 kmh E 3.4 mph5.5 kmh 30.01 in1016.3 mb - 0.00 in0.0 mm 0.00 in0.0 mm
07:02 AM 67.3°F19.6°C 55.0°F12.8°C 65% 2.5 mph ENE4.0 kmh ENE 2.5 mph4.0 kmh 30.01 in1016.3 mb - 0.00 in0.0 mm 0.00 in0.0 mm
06:57 AM 67.1°F19.5°C 54.5°F12.5°C 64% 2.9 mph E4.7 kmh E 3.6 mph5.8 kmh 30.01 in1016.3 mb - 0.00 in0.0 mm 0.00 in0.0 mm
06:52 AM 67.6°F19.8°C 54.7°F12.6°C 63% 3.6 mph E5.8 kmh E 3.6 mph5.8 kmh 30.01 in1016.3 mb - 0.00 in0.0 mm 0.00 in0.0 mm
06:47 AM 68.0°F20.0°C 54.9°F12.7°C 63% 3.1 mph E5.0 kmh E 3.6 mph5.8 kmh 30.01 in1016.3 mb - 0.00 in0.0 mm 0.00 in0.0 mm
06:42 AM 68.0°F20.0°C 54.1°F12.3°C 61% Calm Calm -- 30.01 in1016.3 mb - 0.00 in0.0 mm 0.00 in0.0 mm
06:37 AM 68.5°F20.3°C 54.5°F12.5°C 61% 1.3 mph ESE2.1 kmh ESE 1.8 mph2.9 kmh 30.01 in1016.3 mb - 0.00 in0.0 mm 0.00 in0.0 mm
06:32 AM 68.4°F20.2°C 53.4°F11.9°C 59% 2.2 mph E3.5 kmh E 2.0 mph3.2 kmh 30.01 in1016.3 mb - 0.00 in0.0 mm 0.00 in0.0 mm
06:27 AM 69.3°F20.7°C 55.2°F12.9°C 61% 0.9 mph ENE1.4 kmh ENE 2.9 mph4.7 kmh 30.01 in1016.3 mb - 0.00 in0.0 mm 0.00 in0.0 mm
06:22 AM 68.9°F20.5°C 54.9°F12.7°C 61% 1.6 mph NNE2.6 kmh NNE 2.5 mph4.0 kmh 29.99 in1015.6 mb - 0.00 in0.0 mm 0.00 in0.0 mm
06:17 AM 68.9°F20.5°C 54.5°F12.5°C 60% 1.1 mph NNE1.8 kmh NNE 1.1 mph1.8 kmh 29.99 in1015.6 mb - 0.00 in0.0 mm 0.00 in0.0 mm
06:12 AM 69.4°F20.8°C 55.4°F13.0°C 61% 2.0 mph NNE3.2 kmh NNE 2.5 mph4.0 kmh 29.99 in1015.6 mb - 0.00 in0.0 mm 0.00 in0.0 mm
06:07 AM 69.3°F20.7°C 55.2°F12.9°C 61% 1.3 mph NNE2.1 kmh NNE 2.5 mph4.0 kmh 30.01 in1016.3 mb - 0.00 in0.0 mm 0.00 in0.0 mm
06:02 AM 68.7°F20.4°C 55.2°F12.9°C 62% Calm Calm -- 30.01 in1016.3 mb - 0.00 in0.0 mm 0.00 in0.0 mm
05:57 AM 69.1°F20.6°C 55.6°F13.1°C 62% 1.1 mph NNW1.8 kmh NNW -- 30.01 in1016.3 mb - 0.00 in0.0 mm 0.00 in0.0 mm
05:52 AM 67.3°F19.6°C 55.0°F12.8°C 65% 3.1 mph NW5.0 kmh NW 3.4 mph5.5 kmh 30.01 in1016.3 mb - 0.00 in0.0 mm 0.00 in0.0 mm
05:47 AM 67.3°F19.6°C 55.0°F12.8°C 65% 2.2 mph 3.5 kmh 2.0 mph3.2 kmh 30.01 in1016.3 mb - 0.00 in0.0 mm 0.00 in0.0 mm
05:42 AM 66.4°F19.1°C 53.4°F11.9°C 63% 4.0 mph NNW6.4 kmh NNW 4.0 mph6.4 kmh 30.01 in1016.3 mb - 0.00 in0.0 mm 0.00 in0.0 mm
05:37 AM 67.3°F19.6°C 53.8°F12.1°C 62% 2.9 mph NW4.7 kmh NW 3.8 mph6.1 kmh 30.01 in1016.3 mb - 0.00 in0.0 mm 0.00 in0.0 mm
05:32 AM 66.7°F19.3°C 53.2°F11.8°C 62% 4.5 mph NNW7.2 kmh NNW 4.3 mph6.9 kmh 30.01 in1016.3 mb - 0.00 in0.0 mm 0.00 in0.0 mm
05:27 AM 67.6°F19.8°C 53.8°F12.1°C 61% 4.7 mph NW7.6 kmh NW 5.4 mph8.7 kmh 30.01 in1016.3 mb - 0.00 in0.0 mm 0.00 in0.0 mm
05:22 AM 68.7°F20.4°C 53.8°F12.1°C 59% 3.6 mph NNW5.8 kmh NNW 3.1 mph5.0 kmh 30.01 in1016.3 mb - 0.00 in0.0 mm 0.00 in0.0 mm
05:17 AM 70.0°F21.1°C 53.6°F12.0°C 56% 0.4 mph 0.6 kmh 2.0 mph3.2 kmh 30.01 in1016.3 mb - 0.00 in0.0 mm 0.00 in0.0 mm
05:12 AM 70.2°F21.2°C 53.8°F12.1°C 56% 0.9 mph 1.4 kmh -- 30.01 in1016.3 mb - 0.00 in0.0 mm 0.00 in0.0 mm
05:07 AM 69.8°F21.0°C 54.0°F12.2°C 57% 2.7 mph 4.3 kmh 3.4 mph5.5 kmh 30.01 in1016.3 mb - 0.00 in0.0 mm 0.00 in0.0 mm
05:02 AM 69.1°F20.6°C 54.1°F12.3°C 59% 0.2 mph NNE0.3 kmh NNE -- 30.01 in1016.3 mb - 0.00 in0.0 mm 0.00 in0.0 mm
04:57 AM 69.6°F20.9°C 53.8°F12.1°C 57% 3.1 mph 5.0 kmh 3.1 mph5.0 kmh 30.01 in1016.3 mb - 0.00 in0.0 mm 0.00 in0.0 mm
04:52 AM 69.4°F20.8°C 54.0°F12.2°C 58% 2.0 mph NNW3.2 kmh NNW -- 30.01 in1016.3 mb - 0.00 in0.0 mm 0.00 in0.0 mm
04:47 AM 69.3°F20.7°C 54.3°F12.4°C 59% 1.3 mph 2.1 kmh -- 30.01 in1016.3 mb - 0.00 in0.0 mm 0.00 in0.0 mm
04:42 AM 68.7°F20.4°C 54.3°F12.4°C 60% 1.6 mph NW2.6 kmh NW 3.6 mph5.8 kmh 30.01 in1016.3 mb - 0.00 in0.0 mm 0.00 in0.0 mm
04:37 AM 69.1°F20.6°C 53.2°F11.8°C 57% 2.7 mph NNW4.3 kmh NNW 2.9 mph4.7 kmh 30.01 in1016.3 mb - 0.00 in0.0 mm 0.00 in0.0 mm
04:32 AM 68.7°F20.4°C 53.4°F11.9°C 58% 3.4 mph NW5.5 kmh NW 3.1 mph5.0 kmh 30.01 in1016.3 mb - 0.00 in0.0 mm 0.00 in0.0 mm
04:27 AM 69.6°F20.9°C 55.6°F13.1°C 61% 3.1 mph NE5.0 kmh NE 3.4 mph5.5 kmh 30.01 in1016.3 mb - 0.00 in0.0 mm 0.00 in0.0 mm
04:22 AM 69.8°F21.0°C 55.8°F13.2°C 61% 3.4 mph 5.5 kmh 4.0 mph6.4 kmh 29.99 in1015.6 mb - 0.00 in0.0 mm 0.00 in0.0 mm
04:17 AM 70.0°F21.1°C 56.3°F13.5°C 62% 2.7 mph 4.3 kmh 2.9 mph4.7 kmh 29.99 in1015.6 mb - 0.00 in0.0 mm 0.00 in0.0 mm
04:12 AM 70.2°F21.2°C 57.0°F13.9°C 63% 3.6 mph NNE5.8 kmh NNE 3.8 mph6.1 kmh 29.99 in1015.6 mb - 0.00 in0.0 mm 0.00 in0.0 mm
04:07 AM 70.2°F21.2°C 57.0°F13.9°C 63% 4.3 mph NNE6.9 kmh NNE 3.4 mph5.5 kmh 30.01 in1016.3 mb - 0.00 in0.0 mm 0.00 in0.0 mm
04:02 AM 69.6°F20.9°C 56.1°F13.4°C 62% Calm Calm -- 30.01 in1016.3 mb - 0.00 in0.0 mm 0.00 in0.0 mm
03:57 AM 70.2°F21.2°C 56.5°F13.6°C 62% 2.0 mph NE3.2 kmh NE 2.5 mph4.0 kmh 30.01 in1016.3 mb - 0.00 in0.0 mm 0.00 in0.0 mm
03:52 AM 70.3°F21.3°C 57.2°F14.0°C 63% Calm Calm -- 30.01 in1016.3 mb - 0.00 in0.0 mm 0.00 in0.0 mm
03:47 AM 70.3°F21.3°C 57.2°F14.0°C 63% Calm Calm -- 30.01 in1016.3 mb - 0.00 in0.0 mm 0.00 in0.0 mm
03:42 AM 70.2°F21.2°C 56.1°F13.4°C 61% 1.8 mph 2.9 kmh 2.7 mph4.3 kmh 30.01 in1016.3 mb - 0.00 in0.0 mm 0.00 in0.0 mm
03:37 AM 70.3°F21.3°C 55.8°F13.2°C 60% 2.5 mph NNE4.0 kmh NNE 3.1 mph5.0 kmh 29.99 in1015.6 mb - 0.00 in0.0 mm 0.00 in0.0 mm
03:32 AM 70.5°F21.4°C 55.9°F13.3°C 60% 1.6 mph NNE2.6 kmh NNE -- 29.99 in1015.6 mb - 0.00 in0.0 mm 0.00 in0.0 mm
03:27 AM 70.7°F21.5°C 56.1°F13.4°C 60% 2.9 mph 4.7 kmh 2.7 mph4.3 kmh 29.99 in1015.6 mb - 0.00 in0.0 mm 0.00 in0.0 mm
03:22 AM 70.7°F21.5°C 56.1°F13.4°C 60% 2.0 mph NNE3.2 kmh NNE 1.3 mph2.1 kmh 30.01 in1016.3 mb - 0.00 in0.0 mm 0.00 in0.0 mm
03:17 AM 70.7°F21.5°C 56.1°F13.4°C 60% 1.6 mph NE2.6 kmh NE 1.8 mph2.9 kmh 30.01 in1016.3 mb - 0.00 in0.0 mm 0.00 in0.0 mm
03:12 AM 70.3°F21.3°C 55.8°F13.2°C 60% 2.2 mph 3.5 kmh 2.9 mph4.7 kmh 30.01 in1016.3 mb - 0.00 in0.0 mm 0.00 in0.0 mm
03:07 AM 70.3°F21.3°C 55.8°F13.2°C 60% 1.6 mph 2.6 kmh -- 30.01 in1016.3 mb - 0.00 in0.0 mm 0.00 in0.0 mm
03:02 AM 70.3°F21.3°C 55.4°F13.0°C 59% 0.7 mph WNW1.1 kmh WNW -- 30.01 in1016.3 mb - 0.00 in0.0 mm 0.00 in0.0 mm
02:57 AM 70.0°F21.1°C 55.4°F13.0°C 60% 3.8 mph NW6.1 kmh NW 4.0 mph6.4 kmh 30.01 in1016.3 mb - 0.00 in0.0 mm 0.00 in0.0 mm
02:52 AM 70.3°F21.3°C 55.8°F13.2°C 60% 4.0 mph NNW6.4 kmh NNW 3.8 mph6.1 kmh 29.99 in1015.6 mb - 0.00 in0.0 mm 0.00 in0.0 mm
02:47 AM 70.3°F21.3°C 55.8°F13.2°C 60% 3.8 mph NNW6.1 kmh NNW 3.4 mph5.5 kmh 29.99 in1015.6 mb - 0.00 in0.0 mm 0.00 in0.0 mm
02:42 AM 71.1°F21.7°C 55.6°F13.1°C 58% 1.1 mph NNW1.8 kmh NNW 1.6 mph2.6 kmh 29.99 in1015.6 mb - 0.00 in0.0 mm 0.00 in0.0 mm
02:37 AM 70.5°F21.4°C 54.5°F12.5°C 57% 3.1 mph NW5.0 kmh NW 3.4 mph5.5 kmh 29.99 in1015.6 mb - 0.00 in0.0 mm 0.00 in0.0 mm
02:32 AM 70.5°F21.4°C 56.5°F13.6°C 61% 2.0 mph NW3.2 kmh NW 2.9 mph4.7 kmh 29.99 in1015.6 mb - 0.00 in0.0 mm 0.00 in0.0 mm
02:27 AM 69.6°F20.9°C 56.1°F13.4°C 62% 4.0 mph NW6.4 kmh NW 4.3 mph6.9 kmh 29.99 in1015.6 mb - 0.00 in0.0 mm 0.00 in0.0 mm
02:22 AM 69.3°F20.7°C 56.5°F13.6°C 64% Calm Calm -- 29.99 in1015.6 mb - 0.00 in0.0 mm 0.00 in0.0 mm
02:17 AM 69.4°F20.8°C 56.7°F13.7°C 64% 0.7 mph ENE1.1 kmh ENE 1.1 mph1.8 kmh 29.99 in1015.6 mb - 0.00 in0.0 mm 0.00 in0.0 mm
02:12 AM 69.4°F20.8°C 56.7°F13.7°C 64% 0.9 mph ENE1.4 kmh ENE 1.1 mph1.8 kmh 29.99 in1015.6 mb - 0.00 in0.0 mm 0.00 in0.0 mm
02:07 AM 69.6°F20.9°C 57.4°F14.1°C 65% 1.8 mph E2.9 kmh E 1.8 mph2.9 kmh 30.01 in1016.3 mb - 0.00 in0.0 mm 0.00 in0.0 mm
02:02 AM 69.4°F20.8°C 56.3°F13.5°C 63% 0.7 mph NNE1.1 kmh NNE -- 30.01 in1016.3 mb - 0.00 in0.0 mm 0.00 in0.0 mm
01:57 AM 69.4°F20.8°C 56.3°F13.5°C 63% 1.6 mph E2.6 kmh E 2.0 mph3.2 kmh 30.01 in1016.3 mb - 0.00 in0.0 mm 0.00 in0.0 mm
01:52 AM 69.4°F20.8°C 55.9°F13.3°C 62% 0.7 mph E1.1 kmh E -- 30.01 in1016.3 mb - 0.00 in0.0 mm 0.00 in0.0 mm
01:47 AM 69.4°F20.8°C 55.9°F13.3°C 62% Calm Calm -- 30.01 in1016.3 mb - 0.00 in0.0 mm 0.00 in0.0 mm
01:42 AM 69.6°F20.9°C 56.1°F13.4°C 62% 2.5 mph ESE4.0 kmh ESE 2.0 mph3.2 kmh 30.01 in1016.3 mb - 0.00 in0.0 mm 0.00 in0.0 mm
01:37 AM 69.8°F21.0°C 54.9°F12.7°C 59% 2.7 mph E4.3 kmh E 2.7 mph4.3 kmh 30.01 in1016.3 mb - 0.00 in0.0 mm 0.00 in0.0 mm
01:32 AM 70.0°F21.1°C 55.4°F13.0°C 60% 2.9 mph E4.7 kmh E 2.9 mph4.7 kmh 30.01 in1016.3 mb - 0.00 in0.0 mm 0.00 in0.0 mm
01:27 AM 70.2°F21.2°C 54.7°F12.6°C 58% 1.8 mph ESE2.9 kmh ESE 2.0 mph3.2 kmh 30.01 in1016.3 mb - 0.00 in0.0 mm 0.00 in0.0 mm
01:22 AM 70.3°F21.3°C 54.9°F12.7°C 58% 2.2 mph E3.5 kmh E 2.0 mph3.2 kmh 30.01 in1016.3 mb - 0.00 in0.0 mm 0.00 in0.0 mm
01:17 AM 70.5°F21.4°C 54.5°F12.5°C 57% 2.5 mph E4.0 kmh E 2.0 mph3.2 kmh 30.01 in1016.3 mb - 0.00 in0.0 mm 0.00 in0.0 mm
01:12 AM 70.9°F21.6°C 55.8°F13.2°C 59% 2.7 mph E4.3 kmh E 2.9 mph4.7 kmh 30.01 in1016.3 mb - 0.00 in0.0 mm 0.00 in0.0 mm
01:07 AM 71.1°F21.7°C 54.5°F12.5°C 56% Calm Calm -- 30.01 in1016.3 mb - 0.00 in0.0 mm 0.00 in0.0 mm
01:02 AM 71.2°F21.8°C 54.3°F12.4°C 55% Calm Calm -- 30.01 in1016.3 mb - 0.00 in0.0 mm 0.00 in0.0 mm
12:57 AM 71.4°F21.9°C 54.0°F12.2°C 54% Calm Calm -- 30.01 in1016.3 mb - 0.00 in0.0 mm 0.00 in0.0 mm
12:52 AM 71.4°F21.9°C 53.4°F11.9°C 53% Calm Calm -- 30.01 in1016.3 mb - 0.00 in0.0 mm 0.00 in0.0 mm
12:47 AM 71.6°F22.0°C 52.5°F11.4°C 51% 0.7 mph ENE1.1 kmh ENE 1.8 mph2.9 kmh 30.01 in1016.3 mb - 0.00 in0.0 mm 0.00 in0.0 mm
12:42 AM 72.1°F22.3°C 53.1°F11.7°C 51% 2.2 mph E3.5 kmh E 2.7 mph4.3 kmh 30.01 in1016.3 mb - 0.00 in0.0 mm 0.00 in0.0 mm
12:37 AM 73.0°F22.8°C 52.7°F11.5°C 49% 2.0 mph E3.2 kmh E 2.0 mph3.2 kmh 30.01 in1016.3 mb - 0.00 in0.0 mm 0.00 in0.0 mm
12:32 AM 73.9°F23.3°C 54.1°F12.3°C 50% 1.3 mph NE2.1 kmh NE 2.7 mph4.3 kmh 30.01 in1016.3 mb - 0.00 in0.0 mm 0.00 in0.0 mm
12:27 AM 74.1°F23.4°C 54.9°F12.7°C 51% 2.0 mph NNW3.2 kmh NNW 1.6 mph2.6 kmh 30.01 in1016.3 mb - 0.00 in0.0 mm 0.00 in0.0 mm
12:22 AM 73.8°F23.2°C 54.0°F12.2°C 50% Calm Calm 1.1 mph1.8 kmh 30.01 in1016.3 mb - 0.00 in0.0 mm 0.00 in0.0 mm
12:17 AM 73.8°F23.2°C 55.0°F12.8°C 52% Calm Calm -- 30.01 in1016.3 mb - 0.00 in0.0 mm 0.00 in0.0 mm
12:12 AM 73.6°F23.1°C 54.9°F12.7°C 52% Calm Calm -- 30.01 in1016.3 mb - 0.00 in0.0 mm 0.00 in0.0 mm
12:07 AM 73.4°F23.0°C 53.6°F12.0°C 50% 0.2 mph E0.3 kmh E -- 30.01 in1016.3 mb - 0.00 in0.0 mm 0.00 in0.0 mm
12:02 AM 73.6°F23.1°C 53.8°F12.1°C 50% Calm Calm -- 30.01 in1016.3 mb - 0.00 in0.0 mm 0.00 in0.0 mm